sensor_id;sensor_type;location;lat;lon;timestamp;pressure;altitude;pressure_sealevel;temperature;humidity
76627;BME280;65519;53.230;10.390;2023-12-22T00:01:21;98510.81;;;4.29;100.00
76627;BME280;65519;53.230;10.390;2023-12-22T00:03:49;98509.25;;;4.18;100.00
76627;BME280;65519;53.230;10.390;2023-12-22T00:06:15;98513.56;;;4.19;100.00
76627;BME280;65519;53.230;10.390;2023-12-22T00:08:41;98517.88;;;4.20;100.00
76627;BME280;65519;53.230;10.390;2023-12-22T00:11:06;98528.47;;;4.07;100.00
76627;BME280;65519;53.230;10.390;2023-12-22T00:13:35;98518.97;;;4.19;100.00
76627;BME280;65519;53.230;10.390;2023-12-22T00:16:04;98526.53;;;4.12;100.00
76627;BME280;65519;53.230;10.390;2023-12-22T00:18:30;98520.47;;;3.96;100.00
76627;BME280;65519;53.230;10.390;2023-12-22T00:20:56;98536.91;;;3.95;100.00
76627;BME280;65519;53.230;10.390;2023-12-22T00:23:22;98543.66;;;3.92;100.00
76627;BME280;65519;53.230;10.390;2023-12-22T00:25:50;98540.16;;;3.92;100.00
76627;BME280;65519;53.230;10.390;2023-12-22T00:28:15;98549.31;;;3.96;100.00
76627;BME280;65519;53.230;10.390;2023-12-22T00:30:41;98539.34;;;3.96;100.00
76627;BME280;65519;53.230;10.390;2023-12-22T00:33:06;98546.56;;;4.01;100.00
76627;BME280;65519;53.230;10.390;2023-12-22T00:35:32;98543.88;;;4.01;100.00
76627;BME280;65519;53.230;10.390;2023-12-22T00:37:58;98551.41;;;4.04;100.00
76627;BME280;65519;53.230;10.390;2023-12-22T00:40:23;98544.94;;;4.05;100.00
76627;BME280;65519;53.230;10.390;2023-12-22T00:42:49;98568.66;;;4.08;100.00
76627;BME280;65519;53.230;10.390;2023-12-22T00:45:14;98570.00;;;4.06;100.00
76627;BME280;65519;53.230;10.390;2023-12-22T00:47:40;98556.84;;;3.94;100.00
76627;BME280;65519;53.230;10.390;2023-12-22T00:50:05;98554.75;;;3.86;100.00
76627;BME280;65519;53.230;10.390;2023-12-22T00:52:32;98570.38;;;3.89;100.00
76627;BME280;65519;53.230;10.390;2023-12-22T00:54:57;98567.69;;;3.79;100.00
76627;BME280;65519;53.230;10.390;2023-12-22T00:57:23;98574.44;;;3.81;100.00
76627;BME280;65519;53.230;10.390;2023-12-22T00:59:48;98548.88;;;3.68;100.00
76627;BME280;65519;53.230;10.390;2023-12-22T01:02:15;98551.94;;;3.57;100.00
76627;BME280;65519;53.230;10.390;2023-12-22T01:04:40;98579.66;;;3.57;100.00
76627;BME280;65519;53.230;10.390;2023-12-22T01:07:09;98564.59;;;3.46;100.00
76627;BME280;65519;53.230;10.390;2023-12-22T01:09:35;98585.38;;;3.46;100.00
76627;BME280;65519;53.230;10.390;2023-12-22T01:12:02;98583.47;;;3.41;100.00
76627;BME280;65519;53.230;10.390;2023-12-22T01:14:30;98566.22;;;3.47;100.00
76627;BME280;65519;53.230;10.390;2023-12-22T01:16:56;98579.69;;;3.47;100.00
76627;BME280;65519;53.230;10.390;2023-12-22T01:19:21;98600.69;;;3.50;100.00
76627;BME280;65519;53.230;10.390;2023-12-22T01:21:47;98592.13;;;3.33;100.00
76627;BME280;65519;53.230;10.390;2023-12-22T01:24:12;98594.78;;;3.38;100.00
76627;BME280;65519;53.230;10.390;2023-12-22T01:26:38;98580.53;;;3.38;100.00
76627;BME280;65519;53.230;10.390;2023-12-22T01:29:03;98578.66;;;3.28;100.00
76627;BME280;65519;53.230;10.390;2023-12-22T01:33:31;98591.06;;;3.24;100.00
76627;BME280;65519;53.230;10.390;2023-12-22T01:35:56;98596.19;;;3.20;100.00
76627;BME280;65519;53.230;10.390;2023-12-22T01:38:22;98606.97;;;3.20;100.00
76627;BME280;65519;53.230;10.390;2023-12-22T01:40:47;98606.69;;;3.17;100.00
76627;BME280;65519;53.230;10.390;2023-12-22T01:43:13;98608.56;;;3.21;100.00
76627;BME280;65519;53.230;10.390;2023-12-22T01:45:40;98605.06;;;3.21;100.00
76627;BME280;65519;53.230;10.390;2023-12-22T01:48:09;98607.75;;;3.21;100.00
76627;BME280;65519;53.230;10.390;2023-12-22T01:50:34;98590.81;;;3.20;100.00
76627;BME280;65519;53.230;10.390;2023-12-22T01:53:01;98591.88;;;3.14;100.00
76627;BME280;65519;53.230;10.390;2023-12-22T01:55:27;98598.63;;;3.12;100.00
76627;BME280;65519;53.230;10.390;2023-12-22T01:57:52;98584.63;;;3.05;100.00
76627;BME280;65519;53.230;10.390;2023-12-22T02:00:18;98599.44;;;3.07;100.00
76627;BME280;65519;53.230;10.390;2023-12-22T02:02:43;98588.94;;;3.11;100.00
76627;BME280;65519;53.230;10.390;2023-12-22T02:05:09;98592.16;;;3.18;100.00
76627;BME280;65519;53.230;10.390;2023-12-22T02:07:38;98594.56;;;3.14;100.00
76627;BME280;65519;53.230;10.390;2023-12-22T02:10:09;98589.44;;;3.18;100.00
76627;BME280;65519;53.230;10.390;2023-12-22T02:12:38;98579.75;;;3.17;100.00
76627;BME280;65519;53.230;10.390;2023-12-22T02:15:04;98585.69;;;3.09;100.00
76627;BME280;65519;53.230;10.390;2023-12-22T02:17:44;98587.28;;;3.25;100.00
76627;BME280;65519;53.230;10.390;2023-12-22T02:20:13;98579.72;;;3.27;100.00
76627;BME280;65519;53.230;10.390;2023-12-22T02:22:38;98571.13;;;3.25;100.00
76627;BME280;65519;53.230;10.390;2023-12-22T02:25:04;98578.41;;;3.29;100.00
76627;BME280;65519;53.230;10.390;2023-12-22T02:30:06;98572.19;;;3.34;100.00
76627;BME280;65519;53.230;10.390;2023-12-22T02:32:34;98574.59;;;3.41;100.00
76627;BME280;65519;53.230;10.390;2023-12-22T02:35:03;98561.66;;;3.43;100.00
76627;BME280;65519;53.230;10.390;2023-12-22T02:37:30;98554.66;;;3.42;100.00
76627;BME280;65519;53.230;10.390;2023-12-22T02:39:57;98545.25;;;3.39;100.00
76627;BME280;65519;53.230;10.390;2023-12-22T02:42:23;98565.97;;;3.44;100.00
76627;BME280;65519;53.230;10.390;2023-12-22T02:44:56;98568.63;;;3.54;100.00
76627;BME280;65519;53.230;10.390;2023-12-22T02:47:22;98567.28;;;3.46;100.00
76627;BME280;65519;53.230;10.390;2023-12-22T02:49:47;98568.66;;;3.44;100.00
76627;BME280;65519;53.230;10.390;2023-12-22T02:52:12;98576.44;;;3.55;100.00
76627;BME280;65519;53.230;10.390;2023-12-22T02:54:38;98562.13;;;3.60;100.00
76627;BME280;65519;53.230;10.390;2023-12-22T02:57:09;98562.66;;;3.67;100.00
76627;BME280;65519;53.230;10.390;2023-12-22T02:59:36;98547.81;;;3.70;100.00
76627;BME280;65519;53.230;10.390;2023-12-22T03:02:02;98546.19;;;3.68;100.00
76627;BME280;65519;53.230;10.390;2023-12-22T03:04:27;98532.44;;;3.75;100.00
76627;BME280;65519;53.230;10.390;2023-12-22T03:06:53;98534.84;;;3.77;100.00
76627;BME280;65519;53.230;10.390;2023-12-22T03:09:18;98529.44;;;3.82;100.00
76627;BME280;65519;53.230;10.390;2023-12-22T03:11:44;98524.59;;;3.79;100.00
76627;BME280;65519;53.230;10.390;2023-12-22T03:14:09;98524.59;;;3.79;100.00
76627;BME280;65519;53.230;10.390;2023-12-22T03:16:35;98515.69;;;3.83;100.00
76627;BME280;65519;53.230;10.390;2023-12-22T03:19:01;98520.00;;;3.84;100.00
76627;BME280;65519;53.230;10.390;2023-12-22T03:21:26;98516.75;;;3.82;100.00
76627;BME280;65519;53.230;10.390;2023-12-22T03:23:52;98527.22;;;3.94;100.00
76627;BME280;65519;53.230;10.390;2023-12-22T03:26:17;98522.88;;;3.98;100.00
76627;BME280;65519;53.230;10.390;2023-12-22T03:28:43;98509.41;;;3.93;100.00
76627;BME280;65519;53.230;10.390;2023-12-22T03:31:08;98542.56;;;3.93;100.00
76627;BME280;65519;53.230;10.390;2023-12-22T03:33:33;98629.63;;;3.99;100.00
76627;BME280;65519;53.230;10.390;2023-12-22T03:35:59;98569.91;;;3.72;100.00
76627;BME280;65519;53.230;10.390;2023-12-22T03:38:24;98594.31;;;3.21;100.00
76627;BME280;65519;53.230;10.390;2023-12-22T03:40:50;98627.41;;;3.21;100.00
76627;BME280;65519;53.230;10.390;2023-12-22T03:43:15;98628.75;;;3.14;100.00
76627;BME280;65519;53.230;10.390;2023-12-22T03:45:41;98602.41;;;3.01;100.00
76627;BME280;65519;53.230;10.390;2023-12-22T03:48:06;98596.22;;;3.00;100.00
76627;BME280;65519;53.230;10.390;2023-12-22T03:50:31;98587.06;;;2.71;100.00
76627;BME280;65519;53.230;10.390;2023-12-22T03:52:57;98599.16;;;2.83;100.00
76627;BME280;65519;53.230;10.390;2023-12-22T03:55:22;98602.16;;;2.77;100.00
76627;BME280;65519;53.230;10.390;2023-12-22T03:57:48;98593.53;;;2.80;100.00
76627;BME280;65519;53.230;10.390;2023-12-22T04:00:14;98575.53;;;2.70;100.00
76627;BME280;65519;53.230;10.390;2023-12-22T04:02:41;98586.53;;;2.84;100.00
76627;BME280;65519;53.230;10.390;2023-12-22T04:05:07;98589.47;;;2.82;100.00
76627;BME280;65519;53.230;10.390;2023-12-22T04:07:32;98581.69;;;2.86;100.00
76627;BME280;65519;53.230;10.390;2023-12-22T04:09:58;98580.63;;;2.87;100.00
76627;BME280;65519;53.230;10.390;2023-12-22T04:12:23;98588.94;;;2.85;100.00
76627;BME280;65519;53.230;10.390;2023-12-22T04:14:48;98588.94;;;2.85;100.00
76627;BME280;65519;53.230;10.390;2023-12-22T04:17:14;98584.91;;;2.83;100.00
76627;BME280;65519;53.230;10.390;2023-12-22T04:19:40;98592.47;;;2.81;100.00
76627;BME280;65519;53.230;10.390;2023-12-22T04:22:05;98589.22;;;2.84;100.00
76627;BME280;65519;53.230;10.390;2023-12-22T04:24:31;98606.44;;;2.73;100.00
76627;BME280;65519;53.230;10.390;2023-12-22T04:26:56;98602.16;;;2.77;100.00
76627;BME280;65519;53.230;10.390;2023-12-22T04:29:22;98588.97;;;2.80;100.00
76627;BME280;65519;53.230;10.390;2023-12-22T04:31:47;98589.47;;;2.82;100.00
76627;BME280;65519;53.230;10.390;2023-12-22T04:34:13;98584.91;;;2.73;100.00
76627;BME280;65519;53.230;10.390;2023-12-22T04:36:39;98576.59;;;2.79;100.00
76627;BME280;65519;53.230;10.390;2023-12-22T04:39:04;98573.63;;;2.81;100.00
76627;BME280;65519;53.230;10.390;2023-12-22T04:41:30;98573.91;;;2.79;100.00
76627;BME280;65519;53.230;10.390;2023-12-22T04:43:55;98583.03;;;2.78;100.00
76627;BME280;65519;53.230;10.390;2023-12-22T04:46:21;98587.34;;;2.84;100.00
76627;BME280;65519;53.230;10.390;2023-12-22T04:48:46;98556.66;;;2.85;100.00
76627;BME280;65519;53.230;10.390;2023-12-22T04:51:11;98562.56;;;2.92;100.00
76627;BME280;65519;53.230;10.390;2023-12-22T04:53:37;98547.50;;;3.02;100.00
76627;BME280;65519;53.230;10.390;2023-12-22T04:56:03;98555.00;;;3.05;100.00
76627;BME280;65519;53.230;10.390;2023-12-22T04:58:29;98558.25;;;3.07;100.00
76627;BME280;65519;53.230;10.390;2023-12-22T05:00:54;98558.22;;;3.17;100.00
76627;BME280;65519;53.230;10.390;2023-12-22T05:03:20;98552.31;;;3.15;100.00
76627;BME280;65519;53.230;10.390;2023-12-22T05:05:45;98563.59;;;3.17;100.00
76627;BME280;65519;53.230;10.390;2023-12-22T05:08:11;98555.81;;;3.20;100.00
76627;BME280;65519;53.230;10.390;2023-12-22T05:10:36;98563.59;;;3.27;100.00
76627;BME280;65519;53.230;10.390;2023-12-22T05:13:02;98572.75;;;3.21;100.00
76627;BME280;65519;53.230;10.390;2023-12-22T05:15:27;98565.50;;;3.21;100.00
76627;BME280;65519;53.230;10.390;2023-12-22T05:17:53;98549.56;;;3.25;100.00
76627;BME280;65519;53.230;10.390;2023-12-22T05:20:18;98561.97;;;3.26;100.00
76627;BME280;65519;53.230;10.390;2023-12-22T05:22:43;98561.94;;;3.36;100.00
76627;BME280;65519;53.230;10.390;2023-12-22T05:25:09;98572.16;;;3.39;100.00
76627;BME280;65519;53.230;10.390;2023-12-22T05:27:35;98576.22;;;3.37;100.00
76627;BME280;65519;53.230;10.390;2023-12-22T05:30:01;98561.66;;;3.38;100.00
76627;BME280;65519;53.230;10.390;2023-12-22T05:32:29;98566.22;;;3.47;100.00
76627;BME280;65519;53.230;10.390;2023-12-22T05:34:55;98548.78;;;3.35;100.00
76627;BME280;65519;53.230;10.390;2023-12-22T05:37:20;98547.38;;;3.42;100.00
76627;BME280;65519;53.230;10.390;2023-12-22T05:39:46;98552.25;;;3.40;100.00
76627;BME280;65519;53.230;10.390;2023-12-22T05:42:11;98552.25;;;3.40;100.00
76627;BME280;65519;53.230;10.390;2023-12-22T05:44:37;98560.84;;;3.42;100.00
76627;BME280;65519;53.230;10.390;2023-12-22T05:47:04;98585.63;;;3.44;100.00
76627;BME280;65519;53.230;10.390;2023-12-22T05:49:30;98574.28;;;3.47;100.00
76627;BME280;65519;53.230;10.390;2023-12-22T05:51:55;98585.59;;;3.54;100.00
76627;BME280;65519;53.230;10.390;2023-12-22T05:54:21;98578.06;;;3.46;100.00
76627;BME280;65519;53.230;10.390;2023-12-22T05:56:46;98594.75;;;3.53;100.00
76627;BME280;65519;53.230;10.390;2023-12-22T05:59:12;98603.63;;;3.59;100.00
76627;BME280;65519;53.230;10.390;2023-12-22T06:01:37;98601.75;;;3.54;100.00
76627;BME280;65519;53.230;10.390;2023-12-22T06:04:03;98613.59;;;3.58;100.00
76627;BME280;65519;53.230;10.390;2023-12-22T06:06:28;98619.81;;;3.49;100.00
76627;BME280;65519;53.230;10.390;2023-12-22T06:08:55;98617.13;;;3.54;100.00
76627;BME280;65519;53.230;10.390;2023-12-22T06:11:21;98645.41;;;3.56;100.00
76627;BME280;65519;53.230;10.390;2023-12-22T06:13:47;98657.00;;;3.57;100.00
76627;BME280;65519;53.230;10.390;2023-12-22T06:16:14;98674.19;;;3.66;100.00
76627;BME280;65519;53.230;10.390;2023-12-22T06:18:40;98675.56;;;3.53;100.00
76627;BME280;65519;53.230;10.390;2023-12-22T06:21:07;98693.63;;;3.53;100.00
76627;BME280;65519;53.230;10.390;2023-12-22T06:23:32;98690.97;;;3.22;100.00
76627;BME280;65519;53.230;10.390;2023-12-22T06:25:58;98699.31;;;3.21;100.00
76627;BME280;65519;53.230;10.390;2023-12-22T06:28:23;98705.50;;;3.11;100.00
76627;BME280;65519;53.230;10.390;2023-12-22T06:30:49;98732.16;;;3.13;100.00
76627;BME280;65519;53.230;10.390;2023-12-22T06:33:14;98725.97;;;3.12;100.00
76627;BME280;65519;53.230;10.390;2023-12-22T06:35:40;98685.31;;;3.09;100.00
76627;BME280;65519;53.230;10.390;2023-12-22T06:38:10;98693.38;;;3.09;100.00
76627;BME280;65519;53.230;10.390;2023-12-22T06:40:37;98700.38;;;3.10;100.00
76627;BME280;65519;53.230;10.390;2023-12-22T06:43:03;98707.94;;;3.13;100.00
76627;BME280;65519;53.230;10.390;2023-12-22T06:45:29;98704.94;;;3.04;100.00
76627;BME280;65519;53.230;10.390;2023-12-22T06:47:55;98709.25;;;3.00;100.00
76627;BME280;65519;53.230;10.390;2023-12-22T06:50:20;98738.59;;;2.97;100.00
76627;BME280;65519;53.230;10.390;2023-12-22T06:52:46;98744.50;;;2.99;100.00
76627;BME280;65519;53.230;10.390;2023-12-22T06:55:11;98752.56;;;3.04;100.00
76627;BME280;65519;53.230;10.390;2023-12-22T06:57:37;98759.56;;;2.89;100.00
76627;BME280;65519;53.230;10.390;2023-12-22T07:00:03;98746.09;;;2.84;100.00
76627;BME280;65519;53.230;10.390;2023-12-22T07:02:29;98749.03;;;2.73;100.00
76627;BME280;65519;53.230;10.390;2023-12-22T07:07:32;98775.94;;;2.73;100.00
76627;BME280;65519;53.230;10.390;2023-12-22T07:09:57;98770.78;;;2.61;100.00
76627;BME280;65519;53.230;10.390;2023-12-22T07:12:23;98753.31;;;2.59;100.00
76627;BME280;65519;53.230;10.390;2023-12-22T07:14:48;98758.47;;;2.70;100.00
76627;BME280;65519;53.230;10.390;2023-12-22T07:17:13;98767.56;;;2.59;100.00
76627;BME280;65519;53.230;10.390;2023-12-22T07:19:39;98768.94;;;2.72;100.00
76627;BME280;65519;53.230;10.390;2023-12-22T07:22:04;98755.47;;;2.72;100.00
76627;BME280;65519;53.230;10.390;2023-12-22T07:24:30;98775.13;;;2.72;100.00
76627;BME280;65519;53.230;10.390;2023-12-22T07:26:55;98780.00;;;2.85;100.00
76627;BME280;65519;53.230;10.390;2023-12-22T07:29:21;98784.84;;;2.83;100.00
76627;BME280;65519;53.230;10.390;2023-12-22T07:31:46;98783.22;;;2.82;100.00
76627;BME280;65519;53.230;10.390;2023-12-22T07:34:11;98801.03;;;2.99;100.00
76627;BME280;65519;53.230;10.390;2023-12-22T07:36:37;98796.72;;;2.98;100.00
76627;BME280;65519;53.230;10.390;2023-12-22T07:39:03;98805.34;;;3.00;100.00
76627;BME280;65519;53.230;10.390;2023-12-22T07:41:28;98799.66;;;2.96;100.00
76627;BME280;65519;53.230;10.390;2023-12-22T07:43:54;98813.41;;;3.05;100.00
76627;BME280;65519;53.230;10.390;2023-12-22T07:46:19;98821.25;;;3.11;100.00
76627;BME280;65519;53.230;10.390;2023-12-22T07:48:45;98807.53;;;3.18;100.00
76627;BME280;65519;53.230;10.390;2023-12-22T07:51:11;98809.97;;;3.29;100.00
76627;BME280;65519;53.230;10.390;2023-12-22T07:53:37;98821.03;;;3.33;100.00
76627;BME280;65519;53.230;10.390;2023-12-22T07:56:03;98826.97;;;3.35;100.00
76627;BME280;65519;53.230;10.390;2023-12-22T07:58:31;98812.94;;;3.38;100.00
76627;BME280;65519;53.230;10.390;2023-12-22T08:00:58;98828.03;;;3.49;100.00
76627;BME280;65519;53.230;10.390;2023-12-22T08:03:23;98862.81;;;3.56;100.00
76627;BME280;65519;53.230;10.390;2023-12-22T08:05:49;98874.91;;;3.53;100.00
76627;BME280;65519;53.230;10.390;2023-12-22T08:08:14;98894.56;;;3.59;100.00
76627;BME280;65519;53.230;10.390;2023-12-22T08:10:41;98902.41;;;3.60;100.00
76627;BME280;65519;53.230;10.390;2023-12-22T08:13:06;98912.34;;;3.50;100.00
76627;BME280;65519;53.230;10.390;2023-12-22T08:15:32;98901.84;;;3.43;100.00
76627;BME280;65519;53.230;10.390;2023-12-22T08:17:57;98912.59;;;3.33;100.00
76627;BME280;65519;53.230;10.390;2023-12-22T08:20:23;98894.50;;;3.18;100.00
76627;BME280;65519;53.230;10.390;2023-12-22T08:22:49;98889.06;;;3.08;100.00
76627;BME280;65519;53.230;10.390;2023-12-22T08:25:15;98884.53;;;3.19;100.00
76627;BME280;65519;53.230;10.390;2023-12-22T08:27:41;98885.31;;;3.09;100.00
76627;BME280;65519;53.230;10.390;2023-12-22T08:30:10;98879.69;;;3.21;100.00
76627;BME280;65519;53.230;10.390;2023-12-22T08:32:36;98870.75;;;3.00;100.00
76627;BME280;65519;53.230;10.390;2023-12-22T08:35:02;98871.59;;;3.11;100.00
76627;BME280;65519;53.230;10.390;2023-12-22T08:37:29;98854.34;;;3.07;100.00
76627;BME280;65519;53.230;10.390;2023-12-22T08:39:54;98855.97;;;3.08;100.00
76627;BME280;65519;53.230;10.390;2023-12-22T08:42:20;98838.25;;;3.22;100.00
76627;BME280;65519;53.230;10.390;2023-12-22T08:44:48;98849.03;;;3.42;100.00
76627;BME280;65519;53.230;10.390;2023-12-22T08:47:13;98849.84;;;3.58;100.00
76627;BME280;65519;53.230;10.390;2023-12-22T08:49:38;98871.16;;;3.64;100.00
76627;BME280;65519;53.230;10.390;2023-12-22T08:52:04;98878.41;;;3.59;100.00
76627;BME280;65519;53.230;10.390;2023-12-22T08:54:30;98888.94;;;3.65;100.00
76627;BME280;65519;53.230;10.390;2023-12-22T08:56:56;98922.34;;;3.64;100.00
76627;BME280;65519;53.230;10.390;2023-12-22T08:59:21;98930.38;;;3.49;100.00
76627;BME280;65519;53.230;10.390;2023-12-22T09:01:47;98930.91;;;3.46;100.00
76627;BME280;65519;53.230;10.390;2023-12-22T09:04:13;98925.50;;;3.36;100.00
76627;BME280;65519;53.230;10.390;2023-12-22T09:06:38;98955.41;;;3.40;100.00
76627;BME280;65519;53.230;10.390;2023-12-22T09:09:04;98939.25;;;3.40;100.00
76627;BME280;65519;53.230;10.390;2023-12-22T09:11:30;98937.91;;;3.47;100.00
76627;BME280;65519;53.230;10.390;2023-12-22T09:13:56;98941.72;;;3.51;100.00
76627;BME280;65519;53.230;10.390;2023-12-22T09:16:22;98941.19;;;3.59;100.00
76627;BME280;65519;53.230;10.390;2023-12-22T09:18:48;98945.53;;;3.81;100.00
76627;BME280;65519;53.230;10.390;2023-12-22T09:21:13;98958.22;;;3.75;100.00
76627;BME280;65519;53.230;10.390;2023-12-22T09:23:39;98973.84;;;3.73;100.00
76627;BME280;65519;53.230;10.390;2023-12-22T09:26:04;98965.47;;;3.70;100.00
76627;BME280;65519;53.230;10.390;2023-12-22T09:28:30;98962.53;;;3.81;100.00
76627;BME280;65519;53.230;10.390;2023-12-22T09:30:55;98963.63;;;3.85;100.00
76627;BME280;65519;53.230;10.390;2023-12-22T09:33:21;98953.66;;;3.86;100.00
76627;BME280;65519;53.230;10.390;2023-12-22T09:35:48;98946.91;;;3.88;100.00
76627;BME280;65519;53.230;10.390;2023-12-22T09:38:13;98962.78;;;3.90;100.00
76627;BME280;65519;53.230;10.390;2023-12-22T09:40:39;98946.09;;;3.88;100.00
76627;BME280;65519;53.230;10.390;2023-12-22T09:43:06;98953.38;;;4.13;100.00
76627;BME280;65519;53.230;10.390;2023-12-22T09:45:36;98953.38;;;4.13;100.00
76627;BME280;65519;53.230;10.390;2023-12-22T09:48:03;98945.03;;;4.14;100.00
76627;BME280;65519;53.230;10.390;2023-12-22T09:50:30;98951.75;;;4.12;100.00
76627;BME280;65519;53.230;10.390;2023-12-22T09:52:56;98964.72;;;4.10;100.00
76627;BME280;65519;53.230;10.390;2023-12-22T09:55:22;98952.03;;;4.05;100.00
76627;BME280;65519;53.230;10.390;2023-12-22T09:57:49;98964.97;;;4.23;100.00
76627;BME280;65519;53.230;10.390;2023-12-22T10:00:15;98972.25;;;4.33;100.00
76627;BME280;65519;53.230;10.390;2023-12-22T10:02:42;98967.97;;;4.42;100.00
76627;BME280;65519;53.230;10.390;2023-12-22T10:05:11;98970.09;;;4.45;100.00
76627;BME280;65519;53.230;10.390;2023-12-22T10:07:38;98964.44;;;4.47;100.00
76627;BME280;65519;53.230;10.390;2023-12-22T10:10:05;98961.75;;;4.42;100.00
76627;BME280;65519;53.230;10.390;2023-12-22T10:12:34;98955.53;;;4.36;100.00
76627;BME280;65519;53.230;10.390;2023-12-22T10:15:00;98959.59;;;4.54;100.00
76627;BME280;65519;53.230;10.390;2023-12-22T10:17:25;98954.16;;;4.69;100.00
76627;BME280;65519;53.230;10.390;2023-12-22T10:19:52;98955.69;;;5.05;100.00
76627;BME280;65519;53.230;10.390;2023-12-22T10:22:17;98948.31;;;5.21;100.00
76627;BME280;65519;53.230;10.390;2023-12-22T10:24:45;98947.41;;;5.51;100.00
76627;BME280;65519;53.230;10.390;2023-12-22T10:27:16;98939.19;;;5.66;100.00
76627;BME280;65519;53.230;10.390;2023-12-22T10:29:54;98935.88;;;5.74;100.00
76627;BME280;65519;53.230;10.390;2023-12-22T10:32:20;98946.88;;;5.44;100.00
76627;BME280;65519;53.230;10.390;2023-12-22T10:34:47;98956.38;;;5.36;100.00
76627;BME280;65519;53.230;10.390;2023-12-22T10:37:12;98948.06;;;5.28;100.00
76627;BME280;65519;53.230;10.390;2023-12-22T10:39:38;98944.31;;;5.19;100.00
76627;BME280;65519;53.230;10.390;2023-12-22T10:42:04;98956.47;;;5.16;100.00
76627;BME280;65519;53.230;10.390;2023-12-22T10:44:30;98949.72;;;5.08;100.00
76627;BME280;65519;53.230;10.390;2023-12-22T10:46:56;98934.66;;;4.92;100.00
76627;BME280;65519;53.230;10.390;2023-12-22T10:49:23;98941.16;;;4.96;100.00
76627;BME280;65519;53.230;10.390;2023-12-22T10:51:49;98942.25;;;4.80;100.00
76627;BME280;65519;53.230;10.390;2023-12-22T10:54:14;98942.78;;;4.82;100.00
76627;BME280;65519;53.230;10.390;2023-12-22T10:56:40;98949.81;;;4.83;100.00
76627;BME280;65519;53.230;10.390;2023-12-22T10:59:07;98949.56;;;4.69;100.00
76627;BME280;65519;53.230;10.390;2023-12-22T11:01:33;98946.59;;;4.71;100.00
76627;BME280;65519;53.230;10.390;2023-12-22T11:04:03;98972.50;;;4.67;100.00
76627;BME280;65519;53.230;10.390;2023-12-22T11:06:34;98959.88;;;4.52;100.00
76627;BME280;65519;53.230;10.390;2023-12-22T11:09:00;98921.56;;;4.40;100.00
76627;BME280;65519;53.230;10.390;2023-12-22T11:11:32;98970.94;;;4.30;100.00
76627;BME280;65519;53.230;10.390;2023-12-22T11:14:00;98965.00;;;4.08;100.00
76627;BME280;65519;53.230;10.390;2023-12-22T11:16:27;98975.78;;;4.08;100.00
76627;BME280;65519;53.230;10.390;2023-12-22T11:18:54;98978.72;;;4.01;100.00
76627;BME280;65519;53.230;10.390;2023-12-22T11:21:24;98985.22;;;4.06;100.00
76627;BME280;65519;53.230;10.390;2023-12-22T11:23:50;98985.75;;;4.13;100.00
76627;BME280;65519;53.230;10.390;2023-12-22T11:26:20;98981.72;;;4.30;100.00
76627;BME280;65519;53.230;10.390;2023-12-22T11:28:47;98980.09;;;4.14;100.00
76627;BME280;65519;53.230;10.390;2023-12-22T11:31:13;98993.59;;;4.29;100.00
76627;BME280;65519;53.230;10.390;2023-12-22T11:33:47;98989.56;;;4.22;100.00
76627;BME280;65519;53.230;10.390;2023-12-22T11:36:17;99005.16;;;4.15;100.00
76627;BME280;65519;53.230;10.390;2023-12-22T11:38:46;99007.06;;;4.14;100.00
76627;BME280;65519;53.230;10.390;2023-12-22T11:41:18;99011.66;;;4.19;100.00
76627;BME280;65519;53.230;10.390;2023-12-22T11:43:46;99003.28;;;4.15;100.00
76627;BME280;65519;53.230;10.390;2023-12-22T11:46:12;99013.25;;;4.10;100.00
76627;BME280;65519;53.230;10.390;2023-12-22T11:48:46;98995.16;;;3.85;100.00
76627;BME280;65519;53.230;10.390;2023-12-22T11:51:13;99008.63;;;3.90;100.00
76627;BME280;65519;53.230;10.390;2023-12-22T11:53:39;99006.50;;;4.02;100.00
76627;BME280;65519;53.230;10.390;2023-12-22T11:56:06;99025.34;;;3.87;100.00
76627;BME280;65519;53.230;10.390;2023-12-22T11:58:42;99015.06;;;3.79;100.00
76627;BME280;65519;53.230;10.390;2023-12-22T12:01:12;99006.41;;;3.61;100.00
76627;BME280;65519;53.230;10.390;2023-12-22T12:03:41;99019.34;;;3.70;100.00
76627;BME280;65519;53.230;10.390;2023-12-22T12:08:39;98992.91;;;3.51;100.00
76627;BME280;65519;53.230;10.390;2023-12-22T12:11:04;98996.13;;;3.48;100.00
76627;BME280;65519;53.230;10.390;2023-12-22T12:13:33;99001.03;;;3.66;100.00
76627;BME280;65519;53.230;10.390;2023-12-22T12:15:59;98991.38;;;3.76;100.00
76627;BME280;65519;53.230;10.390;2023-12-22T12:18:32;98997.56;;;3.76;100.00
76627;BME280;65519;53.230;10.390;2023-12-22T12:20:59;98992.97;;;3.77;100.00
76627;BME280;65519;53.230;10.390;2023-12-22T12:23:25;98995.69;;;3.92;100.00
76627;BME280;65519;53.230;10.390;2023-12-22T12:25:53;99003.81;;;3.97;100.00
76627;BME280;65519;53.230;10.390;2023-12-22T12:28:25;99008.09;;;3.78;100.00
76627;BME280;65519;53.230;10.390;2023-12-22T12:31:05;98996.25;;;3.89;100.00
76627;BME280;65519;53.230;10.390;2023-12-22T12:33:32;98992.19;;;3.86;100.00
76627;BME280;65519;53.230;10.390;2023-12-22T12:35:59;98990.31;;;3.87;100.00
76627;BME280;65519;53.230;10.390;2023-12-22T12:38:45;98987.63;;;3.97;100.00
76627;BME280;65519;53.230;10.390;2023-12-22T12:41:15;98987.63;;;4.12;100.00
76627;BME280;65519;53.230;10.390;2023-12-22T12:43:42;98993.56;;;4.09;100.00
76627;BME280;65519;53.230;10.390;2023-12-22T12:46:08;98991.13;;;4.13;100.00
76627;BME280;65519;53.230;10.390;2023-12-22T12:48:34;98994.09;;;4.11;100.00
76627;BME280;65519;53.230;10.390;2023-12-22T12:51:06;98981.41;;;4.12;100.00
76627;BME280;65519;53.230;10.390;2023-12-22T12:53:32;98976.31;;;4.15;100.00
76627;BME280;65519;53.230;10.390;2023-12-22T12:55:59;98971.75;;;4.21;100.00